createdAt,value
2018-10-19T00:02:12.768Z,25.13
2018-10-19T00:04:41.204Z,28.27
2018-10-19T00:07:09.645Z,25.87
2018-10-19T00:09:38.045Z,26.33
2018-10-19T00:12:06.489Z,24.00
2018-10-19T00:14:34.880Z,20.77
2018-10-19T00:17:03.409Z,26.97
2018-10-19T00:19:32.328Z,26.00
2018-10-19T00:22:00.761Z,24.00
2018-10-19T00:24:29.144Z,22.67
2018-10-19T00:26:57.839Z,22.97
2018-10-19T00:29:26.744Z,23.30
2018-10-19T00:31:55.230Z,19.63
2018-10-19T00:34:23.637Z,23.23
2018-10-19T00:36:52.077Z,22.43
2018-10-19T00:39:21.115Z,20.33
2018-10-19T00:41:49.529Z,21.20
2018-10-19T00:44:17.993Z,21.87
2018-10-19T00:46:46.413Z,24.30
2018-10-19T00:49:14.962Z,22.80
2018-10-19T00:51:43.362Z,20.10
2018-10-19T00:54:11.741Z,29.17
2018-10-19T00:56:40.172Z,22.33
2018-10-19T00:59:08.594Z,25.40
2018-10-19T01:01:36.944Z,22.53
2018-10-19T01:04:06.144Z,25.80
2018-10-19T01:06:34.852Z,25.10
2018-10-19T01:09:03.619Z,23.53
2018-10-19T01:11:31.945Z,27.10
2018-10-19T01:14:00.361Z,26.40
2018-10-19T01:16:28.758Z,21.97
2018-10-19T01:18:57.164Z,18.73
2018-10-19T01:21:25.564Z,20.70
2018-10-19T01:23:53.959Z,17.13
2018-10-19T01:26:22.357Z,24.23
2018-10-19T01:28:50.836Z,20.13
2018-10-19T01:31:19.262Z,21.27
2018-10-19T01:33:47.665Z,29.23
2018-10-19T01:36:16.093Z,22.70
2018-10-19T01:38:44.532Z,23.40
2018-10-19T01:41:13.006Z,18.77
2018-10-19T01:43:41.328Z,19.13
2018-10-19T01:46:09.734Z,22.40
2018-10-19T01:48:38.132Z,22.83
2018-10-19T01:51:06.591Z,23.00
2018-10-19T01:53:34.948Z,25.03
2018-10-19T01:56:03.329Z,20.50
2018-10-19T01:58:31.736Z,23.30
2018-10-19T02:01:00.141Z,26.63
2018-10-19T02:03:28.616Z,25.63
2018-10-19T02:05:57.004Z,20.40
2018-10-19T02:08:25.492Z,24.57
2018-10-19T02:10:53.953Z,22.73
2018-10-19T02:13:22.377Z,22.57
2018-10-19T02:15:50.789Z,25.40
2018-10-19T02:18:19.213Z,19.97
2018-10-19T02:20:47.630Z,30.27
2018-10-19T02:23:16.166Z,21.40
2018-10-19T02:25:44.464Z,23.60
2018-10-19T02:28:12.909Z,30.10
2018-10-19T02:30:41.297Z,29.73
2018-10-19T02:33:09.765Z,27.47
2018-10-19T02:35:38.109Z,32.10
2018-10-19T02:38:06.781Z,24.67
2018-10-19T02:40:35.232Z,25.87
2018-10-19T02:43:03.647Z,22.17
2018-10-19T02:45:34.445Z,26.03
2018-10-19T02:48:03.621Z,29.57
2018-10-19T02:50:32.018Z,31.00
2018-10-19T02:53:00.649Z,34.10
2018-10-19T02:55:29.048Z,28.80
2018-10-19T02:57:57.461Z,25.73
2018-10-19T03:00:25.845Z,25.40
2018-10-19T03:02:54.242Z,38.07
2018-10-19T03:05:22.618Z,27.87
2018-10-19T03:07:51.285Z,31.47
2018-10-19T03:10:19.700Z,27.30
2018-10-19T03:12:48.112Z,29.70
2018-10-19T03:15:16.556Z,33.97
2018-10-19T03:17:44.908Z,28.60
2018-10-19T03:20:13.334Z,23.87
2018-10-19T03:22:41.748Z,39.13
2018-10-19T03:25:10.540Z,30.23
2018-10-19T03:27:38.937Z,29.07
2018-10-19T03:30:08.136Z,30.37
2018-10-19T03:32:36.569Z,24.70
2018-10-19T03:35:06.047Z,39.33
2018-10-19T03:37:34.437Z,31.53
2018-10-19T03:40:02.886Z,34.53
2018-10-19T03:42:31.297Z,32.60
2018-10-19T03:44:59.763Z,28.47
2018-10-19T03:47:28.105Z,29.20
2018-10-19T03:49:56.533Z,33.07
2018-10-19T03:52:25.158Z,29.97
2018-10-19T03:54:53.547Z,28.80
2018-10-19T03:57:21.947Z,30.13
2018-10-19T03:59:50.314Z,31.13
2018-10-19T04:02:18.716Z,29.10
2018-10-19T04:04:47.102Z,33.23
2018-10-19T04:07:15.502Z,34.07
2018-10-19T04:09:43.896Z,29.93
2018-10-19T04:12:12.354Z,30.63
2018-10-19T04:14:40.729Z,32.80
2018-10-19T04:17:09.893Z,29.23
2018-10-19T04:19:38.246Z,32.03
2018-10-19T04:22:06.624Z,31.67
2018-10-19T04:24:35.018Z,25.40
2018-10-19T04:27:03.460Z,30.50
2018-10-19T04:29:31.791Z,34.67
2018-10-19T04:32:00.181Z,31.50
2018-10-19T04:34:28.584Z,35.83
2018-10-19T04:37:02.180Z,29.70
2018-10-19T04:39:30.583Z,26.93
2018-10-19T04:41:59.049Z,27.50
2018-10-19T04:44:27.625Z,28.03
2018-10-19T04:46:56.118Z,33.20
2018-10-19T04:49:24.683Z,42.33
2018-10-19T04:51:53.149Z,30.07
2018-10-19T04:54:21.752Z,28.13
2018-10-19T04:56:50.141Z,24.40
2018-10-19T04:59:18.925Z,30.37
2018-10-19T05:01:47.509Z,26.53
2018-10-19T05:04:16.013Z,34.80
2018-10-19T05:06:44.512Z,31.57
2018-10-19T05:09:13.269Z,26.60
2018-10-19T05:11:42.964Z,33.30
2018-10-19T05:14:11.425Z,26.60
2018-10-19T05:16:39.789Z,28.67
2018-10-19T05:19:08.720Z,34.67
2018-10-19T05:21:37.793Z,36.43
2018-10-19T05:24:06.396Z,29.00
2018-10-19T05:26:34.957Z,25.73
2018-10-19T05:29:03.425Z,27.87
2018-10-19T05:31:31.908Z,32.50
2018-10-19T05:34:00.301Z,32.00
2018-10-19T05:36:28.701Z,26.87
2018-10-19T05:38:57.096Z,32.70
2018-10-19T05:41:25.521Z,32.10
2018-10-19T05:43:53.950Z,35.33
2018-10-19T05:46:22.361Z,28.03
2018-10-19T05:48:50.803Z,30.10
2018-10-19T05:51:19.211Z,26.70
2018-10-19T05:53:47.612Z,26.33
2018-10-19T05:56:16.786Z,29.50
2018-10-19T05:58:45.084Z,27.10
2018-10-19T06:01:13.526Z,29.60
2018-10-19T06:03:41.944Z,28.93
2018-10-19T06:06:10.535Z,26.70
2018-10-19T06:08:38.931Z,27.30
2018-10-19T06:11:07.358Z,32.63
2018-10-19T06:13:35.791Z,30.00
2018-10-19T06:16:04.181Z,32.27
2018-10-19T06:18:32.861Z,30.60
2018-10-19T06:21:01.416Z,28.83
2018-10-19T06:23:30.376Z,22.83
2018-10-19T06:25:58.842Z,25.90
2018-10-19T06:28:27.196Z,30.77
2018-10-19T06:30:55.621Z,29.27
2018-10-19T06:33:24.019Z,29.13
2018-10-19T06:35:52.477Z,26.63
2018-10-19T06:38:20.868Z,31.83
2018-10-19T06:40:49.356Z,28.90
2018-10-19T06:43:17.673Z,36.03
2018-10-19T06:45:46.093Z,28.47
2018-10-19T06:48:14.511Z,24.73
2018-10-19T06:50:42.913Z,33.23
2018-10-19T06:53:11.369Z,28.30
2018-10-19T06:55:39.936Z,32.47
2018-10-19T06:58:08.351Z,26.27
2018-10-19T07:00:36.760Z,35.13
2018-10-19T07:03:05.872Z,33.33
2018-10-19T07:05:34.278Z,29.70
2018-10-19T07:08:02.764Z,30.67
2018-10-19T07:10:31.139Z,38.63
2018-10-19T07:12:59.543Z,26.53
2018-10-19T07:15:28.021Z,29.97
2018-10-19T07:17:56.406Z,29.17
2018-10-19T07:20:24.811Z,27.20
2018-10-19T07:22:53.423Z,33.37
2018-10-19T07:25:21.820Z,35.03
2018-10-19T07:27:50.241Z,29.67
2018-10-19T07:30:18.660Z,25.40
2018-10-19T07:32:47.130Z,30.20
2018-10-19T07:35:15.634Z,31.87
2018-10-19T07:37:43.964Z,29.83
2018-10-19T07:40:12.361Z,32.33
2018-10-19T07:42:40.769Z,38.77
2018-10-19T07:45:09.229Z,28.47
2018-10-19T07:47:37.941Z,31.10
2018-10-19T07:50:06.789Z,30.87
2018-10-19T07:52:35.289Z,31.03
2018-10-19T07:55:03.784Z,30.80
2018-10-19T07:57:32.202Z,32.77
2018-10-19T08:00:00.594Z,29.00
2018-10-19T08:02:29.029Z,31.60
2018-10-19T08:04:57.445Z,32.13
2018-10-19T08:07:25.873Z,58.40
2018-10-19T08:09:54.268Z,32.53
2018-10-19T08:12:22.696Z,41.80
2018-10-19T08:14:51.104Z,36.20
2018-10-19T08:17:19.593Z,38.87
2018-10-19T08:19:47.980Z,38.07
2018-10-19T08:22:16.385Z,39.37
2018-10-19T08:24:44.768Z,40.43
2018-10-19T08:27:13.246Z,39.43
2018-10-19T08:29:41.617Z,45.43
2018-10-19T08:32:10.325Z,38.20
2018-10-19T08:34:38.960Z,45.53
2018-10-19T08:37:07.382Z,42.00
2018-10-19T08:39:35.829Z,39.83
2018-10-19T08:42:04.584Z,56.43
2018-10-19T08:44:33.001Z,38.97
2018-10-19T08:47:01.516Z,40.60
2018-10-19T08:49:29.917Z,47.33
2018-10-19T08:51:58.312Z,39.47
2018-10-19T08:54:26.752Z,50.73
2018-10-19T08:56:55.203Z,41.77
2018-10-19T08:59:23.602Z,36.30
2018-10-19T09:01:52.008Z,38.70
2018-10-19T09:04:20.408Z,38.73
2018-10-19T09:06:48.816Z,41.27
2018-10-19T09:09:17.356Z,42.90
2018-10-19T09:11:45.757Z,42.43
2018-10-19T09:14:25.404Z,34.60
2018-10-19T09:16:53.863Z,41.53
2018-10-19T09:19:22.212Z,42.73
2018-10-19T09:21:50.636Z,37.30
2018-10-19T09:24:19.033Z,34.70
2018-10-19T09:26:47.497Z,34.60
2018-10-19T09:29:15.889Z,35.77
2018-10-19T09:31:44.800Z,43.60
2018-10-19T09:34:13.240Z,34.37
2018-10-19T09:36:41.758Z,34.60
2018-10-19T09:39:13.321Z,38.77
2018-10-19T09:41:42.156Z,38.00
2018-10-19T09:44:10.588Z,36.43
2018-10-19T09:46:41.053Z,36.40
2018-10-19T09:49:13.009Z,42.70
2018-10-19T09:51:42.034Z,37.70
2018-10-19T09:54:11.724Z,35.60
2018-10-19T09:56:40.213Z,35.40
2018-10-19T09:59:08.659Z,34.97
2018-10-19T10:01:37.700Z,36.50
2018-10-19T10:04:06.191Z,32.53
2018-10-19T10:06:34.641Z,36.93
2018-10-19T10:09:03.292Z,34.10
2018-10-19T10:11:31.675Z,32.47
2018-10-19T10:14:00.054Z,34.93
2018-10-19T10:16:28.477Z,32.83
2018-10-19T10:18:56.919Z,30.53
2018-10-19T10:21:25.385Z,32.50
2018-10-19T10:23:53.776Z,36.87
2018-10-19T10:26:22.251Z,34.70
2018-10-19T10:28:50.654Z,36.50
2018-10-19T10:31:19.069Z,30.40
2018-10-19T10:33:47.533Z,33.87
2018-10-19T10:36:15.991Z,30.10
2018-10-19T10:38:44.485Z,32.73
2018-10-19T10:41:14.402Z,30.30
2018-10-19T10:43:42.840Z,28.37
2018-10-19T10:46:11.272Z,27.70
2018-10-19T10:48:39.688Z,31.20
2018-10-19T10:51:08.091Z,28.20
2018-10-19T10:53:36.506Z,28.17
2018-10-19T10:56:05.172Z,29.83
2018-10-19T10:58:33.559Z,31.00
2018-10-19T11:01:02.037Z,30.60
2018-10-19T11:03:30.420Z,32.03
2018-10-19T11:05:58.837Z,26.77
2018-10-19T11:08:27.224Z,25.03
2018-10-19T11:11:05.405Z,24.13
2018-10-19T11:13:33.817Z,24.53
2018-10-19T11:16:02.309Z,26.10
2018-10-19T11:18:30.852Z,23.50
2018-10-19T11:20:59.269Z,27.43
2018-10-19T11:23:27.893Z,25.43
2018-10-19T11:25:56.305Z,26.37
2018-10-19T11:28:32.917Z,23.90
2018-10-19T11:31:01.920Z,26.90
2018-10-19T11:33:30.316Z,25.57
2018-10-19T11:35:58.760Z,27.00
2018-10-19T11:38:27.184Z,28.10
2018-10-19T11:40:55.573Z,29.73
2018-10-19T11:43:23.996Z,25.17
2018-10-19T11:45:52.428Z,23.67
2018-10-19T11:48:20.840Z,25.17
2018-10-19T11:50:49.289Z,28.00
2018-10-19T11:53:17.695Z,28.10
2018-10-19T11:55:46.116Z,25.47
2018-10-19T11:58:15.298Z,28.90
2018-10-19T12:00:43.656Z,25.40
2018-10-19T12:03:12.071Z,29.93
2018-10-19T12:05:40.509Z,27.40
2018-10-19T12:08:08.957Z,25.73
2018-10-19T12:10:37.389Z,26.13
2018-10-19T12:13:06.403Z,26.50
2018-10-19T12:15:34.825Z,23.03
2018-10-19T12:18:03.303Z,27.40
2018-10-19T12:20:31.757Z,26.97
2018-10-19T12:23:00.162Z,28.37
2018-10-19T12:25:28.648Z,148.07
2018-10-19T12:27:57.080Z,32.00
2018-10-19T12:30:25.532Z,23.93
2018-10-19T12:32:54.004Z,25.13
2018-10-19T12:35:22.491Z,22.87
2018-10-19T12:37:50.903Z,23.10
2018-10-19T12:40:19.365Z,29.87
2018-10-19T12:42:47.779Z,29.40
2018-10-19T12:46:33.948Z,27.87
2018-10-19T12:49:02.445Z,27.20
2018-10-19T12:51:30.827Z,32.70
2018-10-19T12:53:59.254Z,31.03
2018-10-19T12:56:27.625Z,29.43
2018-10-19T12:58:56.556Z,27.80
2018-10-19T13:01:26.449Z,31.53
2018-10-19T13:03:54.985Z,27.23
2018-10-19T13:06:23.436Z,33.17
2018-10-19T13:08:52.235Z,29.03
2018-10-19T13:11:20.876Z,39.80
2018-10-19T13:13:49.335Z,32.53
2018-10-19T13:16:17.854Z,27.40
2018-10-19T13:18:46.211Z,29.90
2018-10-19T13:21:14.710Z,32.93
2018-10-19T13:23:48.573Z,32.10
2018-10-19T13:26:17.036Z,31.57
2018-10-19T13:28:45.477Z,36.87
2018-10-19T13:31:13.903Z,33.13
2018-10-19T13:33:42.324Z,33.40
2018-10-19T13:36:10.965Z,32.10
2018-10-19T13:38:39.280Z,35.47
2018-10-19T13:41:07.715Z,37.10
2018-10-19T13:43:36.372Z,36.83
2018-10-19T13:46:05.281Z,35.43
2018-10-19T13:48:33.825Z,38.00
2018-10-19T13:51:02.427Z,36.40
2018-10-19T13:53:30.812Z,38.33
2018-10-19T13:55:59.242Z,34.57
2018-10-19T13:58:27.722Z,34.67
2018-10-19T14:00:59.150Z,39.27
2018-10-19T14:03:27.594Z,34.90
2018-10-19T14:05:56.868Z,34.20
2018-10-19T14:08:25.389Z,37.30
2018-10-19T14:10:53.870Z,32.37
2018-10-19T14:13:22.292Z,33.50
2018-10-19T14:15:50.717Z,37.13
2018-10-19T14:18:19.317Z,35.63
2018-10-19T14:20:47.837Z,35.73
2018-10-19T14:23:16.407Z,44.70
2018-10-19T14:25:44.777Z,39.87
2018-10-19T14:28:13.200Z,43.53
2018-10-19T14:30:41.636Z,39.47
2018-10-19T14:33:10.117Z,36.37
2018-10-19T14:35:38.561Z,36.47
2018-10-19T14:38:07.056Z,32.80
2018-10-19T14:40:35.489Z,37.20
2018-10-19T14:43:04.008Z,38.87
2018-10-19T14:45:32.455Z,37.87
2018-10-19T14:48:00.872Z,36.40
2018-10-19T14:50:29.277Z,24.60
2018-10-19T14:52:57.802Z,27.47
2018-10-19T14:55:26.232Z,26.50
2018-10-19T14:57:54.634Z,28.60
2018-10-19T15:00:23.032Z,34.90
2018-10-19T15:02:51.506Z,39.40
2018-10-19T15:05:20.386Z,45.60
2018-10-19T15:07:48.836Z,38.90
2018-10-19T15:10:18.851Z,40.93
2018-10-19T15:12:47.161Z,40.70
2018-10-19T15:15:17.113Z,41.93
2018-10-19T15:17:45.818Z,38.57
2018-10-19T15:20:14.881Z,46.93
2018-10-19T15:22:43.668Z,42.03
2018-10-19T15:25:12.624Z,44.93
2018-10-19T15:27:42.392Z,45.50
2018-10-19T15:30:12.354Z,43.37
2018-10-19T15:32:40.778Z,48.40
2018-10-19T15:35:09.866Z,47.27
2018-10-19T15:37:38.433Z,52.57
2018-10-19T15:40:07.836Z,54.50
2018-10-19T15:42:36.263Z,47.90
2018-10-19T15:45:05.740Z,44.50
2018-10-19T15:47:34.294Z,46.77
2018-10-19T15:50:02.868Z,42.30
2018-10-19T15:52:31.345Z,44.40
2018-10-19T15:54:59.810Z,50.03
2018-10-19T15:57:28.257Z,50.67
2018-10-19T15:59:56.660Z,45.00
2018-10-19T16:02:25.640Z,49.40
2018-10-19T16:04:54.095Z,42.37
2018-10-19T16:07:22.559Z,42.43
2018-10-19T16:09:50.969Z,43.40
2018-10-19T16:12:19.485Z,53.13
2018-10-19T16:14:48.637Z,55.03
2018-10-19T16:17:17.737Z,50.47
2018-10-19T16:19:46.892Z,47.10
2018-10-19T16:22:15.396Z,44.60
2018-10-19T16:24:43.850Z,49.93
2018-10-19T16:27:12.413Z,47.83
2018-10-19T16:29:40.777Z,55.67
2018-10-19T16:32:09.194Z,50.53
2018-10-19T16:34:37.614Z,62.33
2018-10-19T16:37:06.061Z,66.00
2018-10-19T16:39:34.523Z,63.20
2018-10-19T16:42:03.129Z,71.00
2018-10-19T16:44:31.558Z,68.00
2018-10-19T16:47:00.086Z,68.03
2018-10-19T16:49:28.494Z,86.50
2018-10-19T16:51:56.971Z,86.50
2018-10-19T16:54:25.491Z,89.37
2018-10-19T16:56:54.866Z,65.40
2018-10-19T16:59:23.251Z,56.93
2018-10-19T17:01:51.680Z,71.40
2018-10-19T17:04:20.108Z,60.57
2018-10-19T17:06:48.520Z,45.00
2018-10-19T17:09:17.199Z,47.07
2018-10-19T17:11:45.553Z,36.93
2018-10-19T17:14:14.074Z,43.80
2018-10-19T17:16:42.494Z,39.47
2018-10-19T17:19:11.032Z,38.60
2018-10-19T17:21:39.546Z,39.30
2018-10-19T17:24:08.073Z,34.90
2018-10-19T17:26:36.521Z,39.70
2018-10-19T17:29:05.392Z,31.83
2018-10-19T17:31:33.871Z,37.60
2018-10-19T17:34:02.244Z,37.30
2018-10-19T17:36:30.706Z,29.23
2018-10-19T17:38:59.224Z,37.47
2018-10-19T17:41:27.608Z,37.33
2018-10-19T17:43:56.062Z,34.70
2018-10-19T17:46:24.500Z,31.93
2018-10-19T17:48:54.226Z,33.63
2018-10-19T17:51:22.680Z,31.47
2018-10-19T17:53:51.258Z,35.37
2018-10-19T17:56:19.660Z,32.23
2018-10-19T17:58:48.294Z,36.90
2018-10-19T18:01:16.746Z,40.33
2018-10-19T18:03:45.313Z,36.07
2018-10-19T18:06:14.208Z,35.93
2018-10-19T18:08:42.640Z,40.23
2018-10-19T18:11:11.990Z,35.13
2018-10-19T18:13:40.410Z,36.47
2018-10-19T18:16:08.929Z,37.40
2018-10-19T18:18:37.301Z,53.00
2018-10-19T18:21:06.087Z,34.40
2018-10-19T18:23:34.545Z,33.13
2018-10-19T18:26:02.995Z,33.53
2018-10-19T18:28:31.387Z,38.57
2018-10-19T18:30:59.853Z,35.33
2018-10-19T18:33:28.283Z,34.63
2018-10-19T18:35:56.706Z,35.33
2018-10-19T18:38:25.138Z,32.17
2018-10-19T18:40:54.264Z,40.43
2018-10-19T18:43:22.716Z,36.07
2018-10-19T18:45:51.147Z,33.53
2018-10-19T18:48:19.593Z,32.13
2018-10-19T18:50:48.071Z,30.77
2018-10-19T18:53:16.543Z,36.40
2018-10-19T18:55:44.865Z,31.70
2018-10-19T18:58:13.409Z,39.33
2018-10-19T19:00:41.937Z,42.87
2018-10-19T19:03:12.666Z,33.50
2018-10-19T19:05:41.072Z,35.70
2018-10-19T19:08:09.592Z,42.27
2018-10-19T19:10:37.972Z,39.73
2018-10-19T19:13:11.693Z,37.07
2018-10-19T19:15:40.134Z,33.53
2018-10-19T19:18:08.572Z,36.37
2018-10-19T19:20:36.984Z,43.43
2018-10-19T19:23:06.041Z,34.50
2018-10-19T19:25:40.354Z,37.30
2018-10-19T19:28:08.804Z,34.17
2018-10-19T19:30:37.253Z,32.10
2018-10-19T19:33:11.566Z,37.13
2018-10-19T19:35:40.000Z,34.87
2018-10-19T19:38:08.462Z,37.63
2018-10-19T19:40:42.278Z,37.30
2018-10-19T19:43:10.708Z,36.10
2018-10-19T19:45:39.120Z,40.10
2018-10-19T19:48:12.734Z,34.20
2018-10-19T19:50:41.141Z,38.63
2018-10-19T19:53:09.586Z,30.63
2018-10-19T19:55:37.993Z,40.50
2018-10-19T19:58:06.467Z,40.17
2018-10-19T20:00:34.850Z,37.23
2018-10-19T20:03:03.285Z,35.50
2018-10-19T20:05:31.792Z,38.07
2018-10-19T20:08:00.248Z,41.83
2018-10-19T20:10:28.657Z,37.47
2018-10-19T20:12:57.060Z,40.37
2018-10-19T20:15:25.509Z,45.47
2018-10-19T20:17:53.936Z,33.20
2018-10-19T20:20:22.373Z,27.73
2018-10-19T20:22:51.409Z,35.63
2018-10-19T20:25:19.996Z,38.03
2018-10-19T20:27:48.412Z,37.30
2018-10-19T20:30:16.859Z,42.70
2018-10-19T20:32:45.286Z,38.10
2018-10-19T20:35:13.846Z,51.57
2018-10-19T20:37:42.169Z,38.63
2018-10-19T20:40:10.620Z,35.50
2018-10-19T20:42:39.081Z,40.40
2018-10-19T20:45:08.276Z,39.17
2018-10-19T20:47:43.050Z,38.20
2018-10-19T20:50:11.540Z,44.00
2018-10-19T20:52:39.899Z,34.23
2018-10-19T20:55:08.765Z,37.60
2018-10-19T20:57:37.305Z,38.33
2018-10-19T21:00:06.661Z,29.63
2018-10-19T21:02:35.820Z,30.40
2018-10-19T21:05:04.463Z,34.30
2018-10-19T21:07:32.950Z,34.47
2018-10-19T21:10:01.350Z,32.83
2018-10-19T21:12:29.749Z,34.40
2018-10-19T21:14:58.181Z,31.60
2018-10-19T21:17:26.593Z,32.47
2018-10-19T21:19:55.114Z,36.40
2018-10-19T21:22:23.542Z,30.43
2018-10-19T21:24:51.974Z,29.60
2018-10-19T21:27:20.406Z,28.07
2018-10-19T21:29:48.968Z,27.90
2018-10-19T21:32:17.420Z,29.93
2018-10-19T21:34:45.761Z,29.87
2018-10-19T21:37:14.170Z,29.03
2018-10-19T21:39:43.544Z,30.50
2018-10-19T21:42:12.017Z,35.30
2018-10-19T21:44:40.426Z,30.17
2018-10-19T21:47:08.961Z,31.33
2018-10-19T21:49:37.356Z,32.23
2018-10-19T21:52:06.078Z,27.03
2018-10-19T21:54:34.578Z,31.87
2018-10-19T21:57:03.089Z,31.80
2018-10-19T21:59:31.482Z,25.27
2018-10-19T22:01:59.891Z,28.33
2018-10-19T22:04:28.936Z,28.43
2018-10-19T22:06:57.349Z,26.13
2018-10-19T22:09:25.787Z,32.73
2018-10-19T22:11:54.194Z,29.77
2018-10-19T22:14:22.632Z,31.70
2018-10-19T22:16:51.136Z,25.67
2018-10-19T22:19:19.584Z,32.43
2018-10-19T22:21:48.005Z,27.97
2018-10-19T22:24:16.477Z,28.37
2018-10-19T22:26:44.909Z,24.90
2018-10-19T22:29:13.393Z,30.40
2018-10-19T22:31:41.856Z,29.73
2018-10-19T22:34:10.267Z,25.47
2018-10-19T22:36:38.700Z,32.40
2018-10-19T22:39:08.120Z,32.33
2018-10-19T22:41:37.117Z,24.03
2018-10-19T22:44:05.808Z,26.50
2018-10-19T22:46:34.249Z,31.17
2018-10-19T22:49:02.678Z,27.67
2018-10-19T22:51:31.057Z,25.80
2018-10-19T22:53:59.521Z,33.57
2018-10-19T22:56:27.974Z,30.97
2018-10-19T22:58:56.358Z,38.10
2018-10-19T23:01:24.736Z,33.43
2018-10-19T23:03:53.175Z,30.50
2018-10-19T23:06:21.597Z,26.33
2018-10-19T23:08:50.026Z,30.10
2018-10-19T23:11:18.495Z,31.40
2018-10-19T23:13:46.802Z,27.50
2018-10-19T23:16:15.240Z,25.17
2018-10-19T23:18:43.653Z,33.07
2018-10-19T23:21:12.044Z,34.07
2018-10-19T23:23:40.453Z,25.73
2018-10-19T23:26:08.868Z,28.63
2018-10-19T23:28:37.276Z,28.33
2018-10-19T23:31:05.785Z,31.83
2018-10-19T23:33:34.136Z,37.43
2018-10-19T23:36:02.555Z,30.50
2018-10-19T23:38:30.942Z,32.33
2018-10-19T23:40:59.409Z,28.70
2018-10-19T23:43:28.736Z,27.10
2018-10-19T23:45:57.145Z,28.67
2018-10-19T23:48:25.540Z,25.20
2018-10-19T23:50:53.933Z,24.43
2018-10-19T23:53:22.329Z,24.57
2018-10-19T23:55:50.735Z,23.17
2018-10-19T23:58:25.553Z,27.10
